sensor_id;sensor_type;location;lat;lon;timestamp;temperature;humidity
55771;DHT22;41687;-33.234;-60.334;2023-04-24T00:00:00;17.80;92.60
55771;DHT22;41687;-33.234;-60.334;2023-04-24T00:02:31;17.80;92.40
55771;DHT22;41687;-33.234;-60.334;2023-04-24T00:05:00;17.80;92.50
55771;DHT22;41687;-33.234;-60.334;2023-04-24T00:07:28;17.80;92.40
55771;DHT22;41687;-33.234;-60.334;2023-04-24T00:09:57;17.80;92.40
55771;DHT22;41687;-33.234;-60.334;2023-04-24T00:12:28;17.80;92.50
55771;DHT22;41687;-33.234;-60.334;2023-04-24T00:15:00;17.80;92.70
55771;DHT22;41687;-33.234;-60.334;2023-04-24T00:17:28;17.70;92.90
55771;DHT22;41687;-33.234;-60.334;2023-04-24T00:20:01;17.70;92.80
55771;DHT22;41687;-33.234;-60.334;2023-04-24T00:22:32;17.70;92.80
55771;DHT22;41687;-33.234;-60.334;2023-04-24T00:24:59;17.70;92.80
55771;DHT22;41687;-33.234;-60.334;2023-04-24T00:27:30;17.70;92.70
55771;DHT22;41687;-33.234;-60.334;2023-04-24T00:29:58;17.70;92.60
55771;DHT22;41687;-33.234;-60.334;2023-04-24T00:32:26;17.70;92.50
55771;DHT22;41687;-33.234;-60.334;2023-04-24T00:34:55;17.70;92.50
55771;DHT22;41687;-33.234;-60.334;2023-04-24T00:37:26;17.70;92.40
55771;DHT22;41687;-33.234;-60.334;2023-04-24T00:39:57;17.70;92.40
55771;DHT22;41687;-33.234;-60.334;2023-04-24T00:42:28;17.70;92.40
55771;DHT22;41687;-33.234;-60.334;2023-04-24T00:45:14;17.70;92.50
55771;DHT22;41687;-33.234;-60.334;2023-04-24T00:47:42;17.70;92.50
55771;DHT22;41687;-33.234;-60.334;2023-04-24T00:50:10;17.70;92.80
55771;DHT22;41687;-33.234;-60.334;2023-04-24T00:52:44;17.70;92.80
55771;DHT22;41687;-33.234;-60.334;2023-04-24T00:55:19;17.70;92.90
55771;DHT22;41687;-33.234;-60.334;2023-04-24T00:57:49;17.60;93.10
55771;DHT22;41687;-33.234;-60.334;2023-04-24T01:00:17;17.60;92.90
55771;DHT22;41687;-33.234;-60.334;2023-04-24T01:02:46;17.60;93.00
55771;DHT22;41687;-33.234;-60.334;2023-04-24T01:05:15;17.60;93.20
55771;DHT22;41687;-33.234;-60.334;2023-04-24T01:07:45;17.60;93.30
55771;DHT22;41687;-33.234;-60.334;2023-04-24T01:10:15;17.60;93.30
55771;DHT22;41687;-33.234;-60.334;2023-04-24T01:12:47;17.50;93.30
55771;DHT22;41687;-33.234;-60.334;2023-04-24T01:15:15;17.60;93.40
55771;DHT22;41687;-33.234;-60.334;2023-04-24T01:17:43;17.60;93.40
55771;DHT22;41687;-33.234;-60.334;2023-04-24T01:20:12;17.50;93.60
55771;DHT22;41687;-33.234;-60.334;2023-04-24T01:22:50;17.40;93.70
55771;DHT22;41687;-33.234;-60.334;2023-04-24T01:25:17;17.40;93.60
55771;DHT22;41687;-33.234;-60.334;2023-04-24T01:27:45;17.40;93.60
55771;DHT22;41687;-33.234;-60.334;2023-04-24T01:30:13;17.30;93.50
55771;DHT22;41687;-33.234;-60.334;2023-04-24T01:32:42;17.40;93.50
55771;DHT22;41687;-33.234;-60.334;2023-04-24T01:35:13;17.30;93.50
55771;DHT22;41687;-33.234;-60.334;2023-04-24T01:37:41;17.30;93.50
55771;DHT22;41687;-33.234;-60.334;2023-04-24T01:40:09;17.30;93.60
55771;DHT22;41687;-33.234;-60.334;2023-04-24T01:42:37;17.30;93.60
55771;DHT22;41687;-33.234;-60.334;2023-04-24T01:45:06;17.30;93.80
55771;DHT22;41687;-33.234;-60.334;2023-04-24T01:47:33;17.20;93.60
55771;DHT22;41687;-33.234;-60.334;2023-04-24T01:50:02;17.20;93.70
55771;DHT22;41687;-33.234;-60.334;2023-04-24T01:52:29;17.10;93.80
55771;DHT22;41687;-33.234;-60.334;2023-04-24T01:55:00;17.10;93.80
55771;DHT22;41687;-33.234;-60.334;2023-04-24T01:57:28;17.10;93.80
55771;DHT22;41687;-33.234;-60.334;2023-04-24T01:59:58;17.10;93.70
55771;DHT22;41687;-33.234;-60.334;2023-04-24T02:02:25;17.10;93.80
55771;DHT22;41687;-33.234;-60.334;2023-04-24T02:04:54;17.00;93.90
55771;DHT22;41687;-33.234;-60.334;2023-04-24T02:07:22;17.00;93.90
55771;DHT22;41687;-33.234;-60.334;2023-04-24T02:09:50;16.90;94.10
55771;DHT22;41687;-33.234;-60.334;2023-04-24T02:12:17;16.90;94.00
55771;DHT22;41687;-33.234;-60.334;2023-04-24T02:14:46;16.90;94.10
55771;DHT22;41687;-33.234;-60.334;2023-04-24T02:17:13;16.80;94.30
55771;DHT22;41687;-33.234;-60.334;2023-04-24T02:19:42;16.90;94.20
55771;DHT22;41687;-33.234;-60.334;2023-04-24T02:22:10;16.80;94.20
55771;DHT22;41687;-33.234;-60.334;2023-04-24T02:24:39;16.80;94.30
55771;DHT22;41687;-33.234;-60.334;2023-04-24T02:27:06;16.80;94.20
55771;DHT22;41687;-33.234;-60.334;2023-04-24T02:29:35;16.80;94.30
55771;DHT22;41687;-33.234;-60.334;2023-04-24T02:32:02;16.80;94.40
55771;DHT22;41687;-33.234;-60.334;2023-04-24T02:34:30;16.70;94.40
55771;DHT22;41687;-33.234;-60.334;2023-04-24T02:36:59;16.70;94.60
55771;DHT22;41687;-33.234;-60.334;2023-04-24T02:39:27;16.70;94.60
55771;DHT22;41687;-33.234;-60.334;2023-04-24T02:41:55;16.70;94.60
55771;DHT22;41687;-33.234;-60.334;2023-04-24T02:44:22;16.70;94.70
55771;DHT22;41687;-33.234;-60.334;2023-04-24T02:46:50;16.60;94.80
55771;DHT22;41687;-33.234;-60.334;2023-04-24T02:49:18;16.60;94.60
55771;DHT22;41687;-33.234;-60.334;2023-04-24T02:51:46;16.60;94.90
55771;DHT22;41687;-33.234;-60.334;2023-04-24T02:54:13;16.60;94.90
55771;DHT22;41687;-33.234;-60.334;2023-04-24T02:56:41;16.60;94.90
55771;DHT22;41687;-33.234;-60.334;2023-04-24T02:59:09;16.60;94.80
55771;DHT22;41687;-33.234;-60.334;2023-04-24T03:01:37;16.60;94.70
55771;DHT22;41687;-33.234;-60.334;2023-04-24T03:04:05;16.60;94.60
55771;DHT22;41687;-33.234;-60.334;2023-04-24T03:06:32;16.60;94.90
55771;DHT22;41687;-33.234;-60.334;2023-04-24T03:09:02;16.50;94.70
55771;DHT22;41687;-33.234;-60.334;2023-04-24T03:11:30;16.60;94.70
55771;DHT22;41687;-33.234;-60.334;2023-04-24T03:13:58;16.60;94.80
55771;DHT22;41687;-33.234;-60.334;2023-04-24T03:16:26;16.60;94.80
55771;DHT22;41687;-33.234;-60.334;2023-04-24T03:18:55;16.60;94.90
55771;DHT22;41687;-33.234;-60.334;2023-04-24T03:21:25;16.50;94.60
55771;DHT22;41687;-33.234;-60.334;2023-04-24T03:23:53;16.50;94.80
55771;DHT22;41687;-33.234;-60.334;2023-04-24T03:26:21;16.50;94.70
55771;DHT22;41687;-33.234;-60.334;2023-04-24T03:29:09;16.40;94.80
55771;DHT22;41687;-33.234;-60.334;2023-04-24T03:31:38;16.40;94.90
55771;DHT22;41687;-33.234;-60.334;2023-04-24T03:34:05;16.40;95.00
55771;DHT22;41687;-33.234;-60.334;2023-04-24T03:36:34;16.40;95.20
55771;DHT22;41687;-33.234;-60.334;2023-04-24T03:39:03;16.30;95.20
55771;DHT22;41687;-33.234;-60.334;2023-04-24T03:41:34;16.30;95.20
55771;DHT22;41687;-33.234;-60.334;2023-04-24T03:44:15;16.30;95.20
55771;DHT22;41687;-33.234;-60.334;2023-04-24T03:46:43;16.20;95.40
55771;DHT22;41687;-33.234;-60.334;2023-04-24T03:49:11;16.20;95.30
55771;DHT22;41687;-33.234;-60.334;2023-04-24T03:51:42;16.20;95.30
55771;DHT22;41687;-33.234;-60.334;2023-04-24T03:54:19;16.20;95.20
55771;DHT22;41687;-33.234;-60.334;2023-04-24T03:56:47;16.20;95.30
55771;DHT22;41687;-33.234;-60.334;2023-04-24T03:59:14;16.30;95.20
55771;DHT22;41687;-33.234;-60.334;2023-04-24T04:01:47;16.20;94.90
55771;DHT22;41687;-33.234;-60.334;2023-04-24T04:04:17;16.20;95.20
55771;DHT22;41687;-33.234;-60.334;2023-04-24T04:06:45;16.20;95.50
55771;DHT22;41687;-33.234;-60.334;2023-04-24T04:09:14;16.20;95.30
55771;DHT22;41687;-33.234;-60.334;2023-04-24T04:11:42;16.10;95.60
55771;DHT22;41687;-33.234;-60.334;2023-04-24T04:14:09;16.10;95.40
55771;DHT22;41687;-33.234;-60.334;2023-04-24T04:16:40;16.10;95.20
55771;DHT22;41687;-33.234;-60.334;2023-04-24T04:19:09;16.20;95.10
55771;DHT22;41687;-33.234;-60.334;2023-04-24T04:21:37;16.20;94.90
55771;DHT22;41687;-33.234;-60.334;2023-04-24T04:24:14;16.20;94.90
55771;DHT22;41687;-33.234;-60.334;2023-04-24T04:26:44;16.20;94.80
55771;DHT22;41687;-33.234;-60.334;2023-04-24T04:29:37;16.20;94.60
55771;DHT22;41687;-33.234;-60.334;2023-04-24T04:32:08;16.20;94.40
55771;DHT22;41687;-33.234;-60.334;2023-04-24T04:34:37;16.10;94.90
55771;DHT22;41687;-33.234;-60.334;2023-04-24T04:37:07;16.20;94.70
55771;DHT22;41687;-33.234;-60.334;2023-04-24T04:39:45;16.10;94.50
55771;DHT22;41687;-33.234;-60.334;2023-04-24T04:42:20;16.10;94.50
55771;DHT22;41687;-33.234;-60.334;2023-04-24T04:44:47;16.10;94.20
55771;DHT22;41687;-33.234;-60.334;2023-04-24T04:47:23;16.10;94.30
55771;DHT22;41687;-33.234;-60.334;2023-04-24T04:49:53;16.20;94.30
55771;DHT22;41687;-33.234;-60.334;2023-04-24T04:52:27;16.20;94.20
55771;DHT22;41687;-33.234;-60.334;2023-04-24T04:55:08;16.20;94.20
55771;DHT22;41687;-33.234;-60.334;2023-04-24T04:58:11;16.20;94.30
55771;DHT22;41687;-33.234;-60.334;2023-04-24T05:00:40;16.10;94.40
55771;DHT22;41687;-33.234;-60.334;2023-04-24T05:03:24;16.10;94.40
55771;DHT22;41687;-33.234;-60.334;2023-04-24T05:06:00;16.10;94.50
55771;DHT22;41687;-33.234;-60.334;2023-04-24T05:08:30;16.10;94.50
55771;DHT22;41687;-33.234;-60.334;2023-04-24T05:10:59;16.10;94.30
55771;DHT22;41687;-33.234;-60.334;2023-04-24T05:13:29;16.20;94.30
55771;DHT22;41687;-33.234;-60.334;2023-04-24T05:15:57;16.10;94.50
55771;DHT22;41687;-33.234;-60.334;2023-04-24T05:18:26;16.20;94.40
55771;DHT22;41687;-33.234;-60.334;2023-04-24T05:20:57;16.20;94.20
55771;DHT22;41687;-33.234;-60.334;2023-04-24T05:23:25;16.20;94.10
55771;DHT22;41687;-33.234;-60.334;2023-04-24T05:25:55;16.20;94.10
55771;DHT22;41687;-33.234;-60.334;2023-04-24T05:28:24;16.20;94.10
55771;DHT22;41687;-33.234;-60.334;2023-04-24T05:31:04;16.20;93.90
55771;DHT22;41687;-33.234;-60.334;2023-04-24T05:33:35;16.20;93.80
55771;DHT22;41687;-33.234;-60.334;2023-04-24T05:36:23;16.20;93.80
55771;DHT22;41687;-33.234;-60.334;2023-04-24T05:39:20;16.20;93.80
55771;DHT22;41687;-33.234;-60.334;2023-04-24T05:42:22;16.20;93.80
55771;DHT22;41687;-33.234;-60.334;2023-04-24T05:44:59;16.20;93.80
55771;DHT22;41687;-33.234;-60.334;2023-04-24T05:47:54;16.10;93.80
55771;DHT22;41687;-33.234;-60.334;2023-04-24T05:50:36;16.10;93.90
55771;DHT22;41687;-33.234;-60.334;2023-04-24T05:53:39;16.10;93.80
55771;DHT22;41687;-33.234;-60.334;2023-04-24T05:59:33;16.20;93.70
55771;DHT22;41687;-33.234;-60.334;2023-04-24T06:02:05;16.10;93.90
55771;DHT22;41687;-33.234;-60.334;2023-04-24T06:04:33;16.10;93.90
55771;DHT22;41687;-33.234;-60.334;2023-04-24T06:07:01;16.10;94.10
55771;DHT22;41687;-33.234;-60.334;2023-04-24T06:09:29;16.10;93.90
55771;DHT22;41687;-33.234;-60.334;2023-04-24T06:11:58;16.10;93.90
55771;DHT22;41687;-33.234;-60.334;2023-04-24T06:14:39;16.10;93.80
55771;DHT22;41687;-33.234;-60.334;2023-04-24T06:17:22;16.20;93.80
55771;DHT22;41687;-33.234;-60.334;2023-04-24T06:19:50;16.20;93.60
55771;DHT22;41687;-33.234;-60.334;2023-04-24T06:22:19;16.20;93.70
55771;DHT22;41687;-33.234;-60.334;2023-04-24T06:24:47;16.20;93.80
55771;DHT22;41687;-33.234;-60.334;2023-04-24T06:27:15;16.10;94.00
55771;DHT22;41687;-33.234;-60.334;2023-04-24T06:29:43;16.10;93.90
55771;DHT22;41687;-33.234;-60.334;2023-04-24T06:32:10;16.10;93.80
55771;DHT22;41687;-33.234;-60.334;2023-04-24T06:34:38;16.10;94.00
55771;DHT22;41687;-33.234;-60.334;2023-04-24T06:37:06;16.10;93.80
55771;DHT22;41687;-33.234;-60.334;2023-04-24T06:39:34;16.00;93.80
55771;DHT22;41687;-33.234;-60.334;2023-04-24T06:42:01;16.00;93.70
55771;DHT22;41687;-33.234;-60.334;2023-04-24T06:44:32;16.00;93.80
55771;DHT22;41687;-33.234;-60.334;2023-04-24T06:47:04;15.90;93.90
55771;DHT22;41687;-33.234;-60.334;2023-04-24T06:49:32;15.90;93.80
55771;DHT22;41687;-33.234;-60.334;2023-04-24T06:52:00;15.80;93.90
55771;DHT22;41687;-33.234;-60.334;2023-04-24T06:54:28;15.80;94.00
55771;DHT22;41687;-33.234;-60.334;2023-04-24T06:57:00;15.80;93.90
55771;DHT22;41687;-33.234;-60.334;2023-04-24T06:59:30;15.80;93.90
55771;DHT22;41687;-33.234;-60.334;2023-04-24T07:01:57;15.70;94.00
55771;DHT22;41687;-33.234;-60.334;2023-04-24T07:04:25;15.60;94.00
55771;DHT22;41687;-33.234;-60.334;2023-04-24T07:06:53;15.70;94.00
55771;DHT22;41687;-33.234;-60.334;2023-04-24T07:09:26;15.70;94.10
55771;DHT22;41687;-33.234;-60.334;2023-04-24T07:11:54;15.70;94.00
55771;DHT22;41687;-33.234;-60.334;2023-04-24T07:14:23;15.60;94.10
55771;DHT22;41687;-33.234;-60.334;2023-04-24T07:16:51;15.60;94.10
55771;DHT22;41687;-33.234;-60.334;2023-04-24T07:19:19;15.60;94.10
55771;DHT22;41687;-33.234;-60.334;2023-04-24T07:21:47;15.60;94.10
55771;DHT22;41687;-33.234;-60.334;2023-04-24T07:24:14;15.60;94.30
55771;DHT22;41687;-33.234;-60.334;2023-04-24T07:26:42;15.60;94.30
55771;DHT22;41687;-33.234;-60.334;2023-04-24T07:29:10;15.60;94.30
55771;DHT22;41687;-33.234;-60.334;2023-04-24T07:31:38;15.60;94.20
55771;DHT22;41687;-33.234;-60.334;2023-04-24T07:34:07;15.50;94.40
55771;DHT22;41687;-33.234;-60.334;2023-04-24T07:36:35;15.40;94.50
55771;DHT22;41687;-33.234;-60.334;2023-04-24T07:39:05;15.50;94.40
55771;DHT22;41687;-33.234;-60.334;2023-04-24T07:41:33;15.40;94.20
55771;DHT22;41687;-33.234;-60.334;2023-04-24T07:44:01;15.30;94.10
55771;DHT22;41687;-33.234;-60.334;2023-04-24T07:46:30;15.20;94.20
55771;DHT22;41687;-33.234;-60.334;2023-04-24T07:48:58;15.10;94.30
55771;DHT22;41687;-33.234;-60.334;2023-04-24T07:51:28;15.00;94.40
55771;DHT22;41687;-33.234;-60.334;2023-04-24T07:53:56;15.00;94.50
55771;DHT22;41687;-33.234;-60.334;2023-04-24T07:56:23;14.90;94.50
55771;DHT22;41687;-33.234;-60.334;2023-04-24T07:58:51;14.90;94.60
55771;DHT22;41687;-33.234;-60.334;2023-04-24T08:01:19;14.90;94.60
55771;DHT22;41687;-33.234;-60.334;2023-04-24T08:03:47;14.80;94.70
55771;DHT22;41687;-33.234;-60.334;2023-04-24T08:06:14;14.80;94.80
55771;DHT22;41687;-33.234;-60.334;2023-04-24T08:08:42;14.70;94.80
55771;DHT22;41687;-33.234;-60.334;2023-04-24T08:11:10;14.70;95.10
55771;DHT22;41687;-33.234;-60.334;2023-04-24T08:13:38;14.60;95.10
55771;DHT22;41687;-33.234;-60.334;2023-04-24T08:16:06;14.60;95.30
55771;DHT22;41687;-33.234;-60.334;2023-04-24T08:18:34;14.50;95.40
55771;DHT22;41687;-33.234;-60.334;2023-04-24T08:21:02;14.50;95.40
55771;DHT22;41687;-33.234;-60.334;2023-04-24T08:23:30;14.50;95.30
55771;DHT22;41687;-33.234;-60.334;2023-04-24T08:25:58;14.40;95.50
55771;DHT22;41687;-33.234;-60.334;2023-04-24T08:28:26;14.40;95.60
55771;DHT22;41687;-33.234;-60.334;2023-04-24T08:30:53;14.30;95.60
55771;DHT22;41687;-33.234;-60.334;2023-04-24T08:33:24;14.30;95.60
55771;DHT22;41687;-33.234;-60.334;2023-04-24T08:35:53;14.30;95.70
55771;DHT22;41687;-33.234;-60.334;2023-04-24T08:38:20;14.30;95.70
55771;DHT22;41687;-33.234;-60.334;2023-04-24T08:40:48;14.20;95.90
55771;DHT22;41687;-33.234;-60.334;2023-04-24T08:43:16;14.20;96.10
55771;DHT22;41687;-33.234;-60.334;2023-04-24T08:45:45;14.20;96.30
55771;DHT22;41687;-33.234;-60.334;2023-04-24T08:48:13;14.10;96.10
55771;DHT22;41687;-33.234;-60.334;2023-04-24T08:50:42;14.20;96.20
55771;DHT22;41687;-33.234;-60.334;2023-04-24T08:53:12;14.20;96.20
55771;DHT22;41687;-33.234;-60.334;2023-04-24T08:55:40;14.20;96.30
55771;DHT22;41687;-33.234;-60.334;2023-04-24T08:58:08;14.30;96.20
55771;DHT22;41687;-33.234;-60.334;2023-04-24T09:00:36;14.30;96.10
55771;DHT22;41687;-33.234;-60.334;2023-04-24T09:03:06;14.30;96.40
55771;DHT22;41687;-33.234;-60.334;2023-04-24T09:05:34;14.20;96.40
55771;DHT22;41687;-33.234;-60.334;2023-04-24T09:08:02;14.20;96.50
55771;DHT22;41687;-33.234;-60.334;2023-04-24T09:10:34;14.10;96.70
55771;DHT22;41687;-33.234;-60.334;2023-04-24T09:13:01;14.20;96.70
55771;DHT22;41687;-33.234;-60.334;2023-04-24T09:15:29;14.20;96.60
55771;DHT22;41687;-33.234;-60.334;2023-04-24T09:17:57;14.20;96.60
55771;DHT22;41687;-33.234;-60.334;2023-04-24T09:20:25;14.10;96.60
55771;DHT22;41687;-33.234;-60.334;2023-04-24T09:22:57;14.10;96.70
55771;DHT22;41687;-33.234;-60.334;2023-04-24T09:25:32;14.20;96.70
55771;DHT22;41687;-33.234;-60.334;2023-04-24T09:28:04;14.10;96.90
55771;DHT22;41687;-33.234;-60.334;2023-04-24T09:30:33;14.00;96.80
55771;DHT22;41687;-33.234;-60.334;2023-04-24T09:33:14;14.10;96.80
55771;DHT22;41687;-33.234;-60.334;2023-04-24T09:35:49;14.10;96.90
55771;DHT22;41687;-33.234;-60.334;2023-04-24T09:38:18;14.00;97.00
55771;DHT22;41687;-33.234;-60.334;2023-04-24T09:40:45;14.00;97.00
55771;DHT22;41687;-33.234;-60.334;2023-04-24T09:43:13;13.90;97.00
55771;DHT22;41687;-33.234;-60.334;2023-04-24T09:45:41;13.90;97.20
55771;DHT22;41687;-33.234;-60.334;2023-04-24T09:48:12;13.90;97.40
55771;DHT22;41687;-33.234;-60.334;2023-04-24T09:50:46;13.90;97.10
55771;DHT22;41687;-33.234;-60.334;2023-04-24T09:53:14;13.90;97.20
55771;DHT22;41687;-33.234;-60.334;2023-04-24T09:55:45;13.80;97.50
55771;DHT22;41687;-33.234;-60.334;2023-04-24T09:58:15;13.80;97.40
55771;DHT22;41687;-33.234;-60.334;2023-04-24T10:00:43;13.80;97.50
55771;DHT22;41687;-33.234;-60.334;2023-04-24T10:03:13;13.80;97.40
55771;DHT22;41687;-33.234;-60.334;2023-04-24T10:05:40;13.80;97.30
55771;DHT22;41687;-33.234;-60.334;2023-04-24T10:08:12;13.80;97.40
55771;DHT22;41687;-33.234;-60.334;2023-04-24T10:10:44;13.80;97.30
55771;DHT22;41687;-33.234;-60.334;2023-04-24T10:13:15;13.80;97.40
55771;DHT22;41687;-33.234;-60.334;2023-04-24T10:15:43;13.90;97.30
55771;DHT22;41687;-33.234;-60.334;2023-04-24T10:18:12;13.80;97.40
55771;DHT22;41687;-33.234;-60.334;2023-04-24T10:20:40;13.80;97.50
55771;DHT22;41687;-33.234;-60.334;2023-04-24T10:23:08;13.70;97.70
55771;DHT22;41687;-33.234;-60.334;2023-04-24T10:25:36;13.70;97.80
55771;DHT22;41687;-33.234;-60.334;2023-04-24T10:28:04;13.70;97.60
55771;DHT22;41687;-33.234;-60.334;2023-04-24T10:30:35;13.70;97.60
55771;DHT22;41687;-33.234;-60.334;2023-04-24T10:33:04;13.70;97.50
55771;DHT22;41687;-33.234;-60.334;2023-04-24T10:35:39;13.70;97.60
55771;DHT22;41687;-33.234;-60.334;2023-04-24T10:38:22;13.80;97.70
55771;DHT22;41687;-33.234;-60.334;2023-04-24T10:40:57;13.80;97.60
55771;DHT22;41687;-33.234;-60.334;2023-04-24T10:43:25;13.80;97.60
55771;DHT22;41687;-33.234;-60.334;2023-04-24T10:46:05;13.70;97.80
55771;DHT22;41687;-33.234;-60.334;2023-04-24T10:48:34;13.80;97.70
55771;DHT22;41687;-33.234;-60.334;2023-04-24T10:51:01;13.80;97.80
55771;DHT22;41687;-33.234;-60.334;2023-04-24T10:53:30;13.70;97.80
55771;DHT22;41687;-33.234;-60.334;2023-04-24T10:56:06;13.80;97.70
55771;DHT22;41687;-33.234;-60.334;2023-04-24T11:01:07;13.80;97.80
55771;DHT22;41687;-33.234;-60.334;2023-04-24T11:03:35;13.70;98.00
55771;DHT22;41687;-33.234;-60.334;2023-04-24T11:06:08;13.70;98.00
55771;DHT22;41687;-33.234;-60.334;2023-04-24T11:08:39;13.80;98.10
55771;DHT22;41687;-33.234;-60.334;2023-04-24T11:11:12;13.80;98.00
55771;DHT22;41687;-33.234;-60.334;2023-04-24T11:22:02;13.80;98.10
55771;DHT22;41687;-33.234;-60.334;2023-04-24T11:24:38;13.90;98.00
55771;DHT22;41687;-33.234;-60.334;2023-04-24T11:27:21;13.90;97.90
55771;DHT22;41687;-33.234;-60.334;2023-04-24T11:34:59;14.00;98.20
55771;DHT22;41687;-33.234;-60.334;2023-04-24T11:37:39;14.10;98.00
55771;DHT22;41687;-33.234;-60.334;2023-04-24T11:40:09;14.10;98.30
55771;DHT22;41687;-33.234;-60.334;2023-04-24T11:42:39;14.10;98.40
55771;DHT22;41687;-33.234;-60.334;2023-04-24T11:45:12;14.20;98.30
55771;DHT22;41687;-33.234;-60.334;2023-04-24T11:47:41;14.20;98.30
55771;DHT22;41687;-33.234;-60.334;2023-04-24T11:50:14;14.30;98.30
55771;DHT22;41687;-33.234;-60.334;2023-04-24T11:52:45;14.30;98.00
55771;DHT22;41687;-33.234;-60.334;2023-04-24T11:57:49;14.40;98.00
55771;DHT22;41687;-33.234;-60.334;2023-04-24T12:00:25;14.50;98.00
55771;DHT22;41687;-33.234;-60.334;2023-04-24T12:03:04;14.50;98.30
55771;DHT22;41687;-33.234;-60.334;2023-04-24T12:05:33;14.50;98.20
55771;DHT22;41687;-33.234;-60.334;2023-04-24T12:08:01;14.60;98.10
55771;DHT22;41687;-33.234;-60.334;2023-04-24T12:10:31;14.60;98.20
55771;DHT22;41687;-33.234;-60.334;2023-04-24T12:12:59;14.60;98.20
55771;DHT22;41687;-33.234;-60.334;2023-04-24T12:15:28;14.60;98.40
55771;DHT22;41687;-33.234;-60.334;2023-04-24T12:17:56;14.70;98.50
55771;DHT22;41687;-33.234;-60.334;2023-04-24T12:20:32;14.70;98.40
55771;DHT22;41687;-33.234;-60.334;2023-04-24T12:23:01;14.80;98.40
55771;DHT22;41687;-33.234;-60.334;2023-04-24T12:25:30;14.90;98.60
55771;DHT22;41687;-33.234;-60.334;2023-04-24T12:30:34;15.00;98.80
55771;DHT22;41687;-33.234;-60.334;2023-04-24T12:33:03;15.00;98.80
55771;DHT22;41687;-33.234;-60.334;2023-04-24T12:35:33;15.10;99.00
55771;DHT22;41687;-33.234;-60.334;2023-04-24T12:38:09;15.30;98.80
55771;DHT22;41687;-33.234;-60.334;2023-04-24T12:40:37;15.30;98.90
55771;DHT22;41687;-33.234;-60.334;2023-04-24T12:43:18;15.40;99.10
55771;DHT22;41687;-33.234;-60.334;2023-04-24T12:45:48;15.50;99.10
55771;DHT22;41687;-33.234;-60.334;2023-04-24T12:48:16;15.60;98.90
55771;DHT22;41687;-33.234;-60.334;2023-04-24T12:50:44;15.60;99.00
55771;DHT22;41687;-33.234;-60.334;2023-04-24T12:53:11;15.70;99.10
55771;DHT22;41687;-33.234;-60.334;2023-04-24T12:55:39;15.80;99.40
55771;DHT22;41687;-33.234;-60.334;2023-04-24T12:58:07;15.90;99.60
55771;DHT22;41687;-33.234;-60.334;2023-04-24T13:00:35;16.00;99.40
55771;DHT22;41687;-33.234;-60.334;2023-04-24T13:03:03;16.10;98.80
55771;DHT22;41687;-33.234;-60.334;2023-04-24T13:05:31;16.10;99.20
55771;DHT22;41687;-33.234;-60.334;2023-04-24T13:07:59;16.20;99.00
55771;DHT22;41687;-33.234;-60.334;2023-04-24T13:10:27;16.20;98.70
55771;DHT22;41687;-33.234;-60.334;2023-04-24T13:12:54;16.30;98.70
55771;DHT22;41687;-33.234;-60.334;2023-04-24T13:15:22;16.20;98.70
55771;DHT22;41687;-33.234;-60.334;2023-04-24T13:17:50;16.30;98.60
55771;DHT22;41687;-33.234;-60.334;2023-04-24T13:20:19;16.30;98.60
55771;DHT22;41687;-33.234;-60.334;2023-04-24T13:22:46;16.30;98.50
55771;DHT22;41687;-33.234;-60.334;2023-04-24T13:25:14;16.40;98.60
55771;DHT22;41687;-33.234;-60.334;2023-04-24T13:27:44;16.40;98.40
55771;DHT22;41687;-33.234;-60.334;2023-04-24T13:30:12;16.40;98.50
55771;DHT22;41687;-33.234;-60.334;2023-04-24T13:32:40;16.40;98.70
55771;DHT22;41687;-33.234;-60.334;2023-04-24T13:35:08;16.50;98.60
55771;DHT22;41687;-33.234;-60.334;2023-04-24T13:37:36;16.70;98.40
55771;DHT22;41687;-33.234;-60.334;2023-04-24T13:40:03;16.80;97.70
55771;DHT22;41687;-33.234;-60.334;2023-04-24T13:42:36;17.00;97.60
55771;DHT22;41687;-33.234;-60.334;2023-04-24T13:45:10;17.10;97.30
55771;DHT22;41687;-33.234;-60.334;2023-04-24T13:47:38;17.20;97.00
55771;DHT22;41687;-33.234;-60.334;2023-04-24T13:50:10;17.20;97.00
55771;DHT22;41687;-33.234;-60.334;2023-04-24T13:52:38;17.30;96.80
55771;DHT22;41687;-33.234;-60.334;2023-04-24T13:55:06;17.20;96.90
55771;DHT22;41687;-33.234;-60.334;2023-04-24T13:57:34;17.20;97.10
55771;DHT22;41687;-33.234;-60.334;2023-04-24T14:00:02;17.20;97.20
55771;DHT22;41687;-33.234;-60.334;2023-04-24T14:02:33;17.30;97.30
55771;DHT22;41687;-33.234;-60.334;2023-04-24T14:05:01;17.30;97.50
55771;DHT22;41687;-33.234;-60.334;2023-04-24T14:07:30;17.30;97.40
55771;DHT22;41687;-33.234;-60.334;2023-04-24T14:09:58;17.30;97.40
55771;DHT22;41687;-33.234;-60.334;2023-04-24T14:12:28;17.30;97.30
55771;DHT22;41687;-33.234;-60.334;2023-04-24T14:14:56;17.30;97.40
55771;DHT22;41687;-33.234;-60.334;2023-04-24T14:17:23;17.30;97.40
55771;DHT22;41687;-33.234;-60.334;2023-04-24T14:19:50;17.30;97.30
55771;DHT22;41687;-33.234;-60.334;2023-04-24T14:22:23;17.20;97.40
55771;DHT22;41687;-33.234;-60.334;2023-04-24T14:24:51;17.30;97.20
55771;DHT22;41687;-33.234;-60.334;2023-04-24T14:27:18;17.30;97.00
55771;DHT22;41687;-33.234;-60.334;2023-04-24T14:29:46;17.30;97.40
55771;DHT22;41687;-33.234;-60.334;2023-04-24T14:32:14;17.30;97.40
55771;DHT22;41687;-33.234;-60.334;2023-04-24T14:34:45;17.30;97.60
55771;DHT22;41687;-33.234;-60.334;2023-04-24T14:37:12;17.30;97.60
55771;DHT22;41687;-33.234;-60.334;2023-04-24T14:39:40;17.30;97.70
55771;DHT22;41687;-33.234;-60.334;2023-04-24T14:42:08;17.20;97.60
55771;DHT22;41687;-33.234;-60.334;2023-04-24T14:44:36;17.20;97.90
55771;DHT22;41687;-33.234;-60.334;2023-04-24T14:47:03;17.30;97.60
55771;DHT22;41687;-33.234;-60.334;2023-04-24T14:49:31;17.20;97.60
55771;DHT22;41687;-33.234;-60.334;2023-04-24T14:51:59;17.20;97.80
55771;DHT22;41687;-33.234;-60.334;2023-04-24T14:54:26;17.20;97.60
55771;DHT22;41687;-33.234;-60.334;2023-04-24T14:56:54;17.20;97.60
55771;DHT22;41687;-33.234;-60.334;2023-04-24T14:59:24;17.20;97.50
55771;DHT22;41687;-33.234;-60.334;2023-04-24T15:01:52;17.20;97.30
55771;DHT22;41687;-33.234;-60.334;2023-04-24T15:04:24;17.20;97.40
55771;DHT22;41687;-33.234;-60.334;2023-04-24T15:06:55;17.20;97.60
55771;DHT22;41687;-33.234;-60.334;2023-04-24T15:09:23;17.30;97.50
55771;DHT22;41687;-33.234;-60.334;2023-04-24T15:11:55;17.40;97.50
55771;DHT22;41687;-33.234;-60.334;2023-04-24T15:14:24;17.40;97.50
55771;DHT22;41687;-33.234;-60.334;2023-04-24T15:16:53;17.40;97.30
55771;DHT22;41687;-33.234;-60.334;2023-04-24T15:19:20;17.50;97.20
55771;DHT22;41687;-33.234;-60.334;2023-04-24T15:21:49;17.60;97.20
55771;DHT22;41687;-33.234;-60.334;2023-04-24T15:24:16;17.80;97.10
55771;DHT22;41687;-33.234;-60.334;2023-04-24T15:26:44;17.90;96.80
55771;DHT22;41687;-33.234;-60.334;2023-04-24T15:29:11;18.00;96.60